Time;durP1;ratioP1;P1;durP2;ratioP2;P2;SDS_P1;SDS_P2;PMS_P1;PMS_P2;Temp;Humidity;BMP_temperature;BMP_pressure;BME280_temperature;BME280_humidity;BME280_pressure;Samples;Min_cycle;Max_cycle;Signal;HPM_P1;HPM_P2
2022/04/02 00:01:23;;;;;;;1.88;0.63;;;;;;;25.18;25.33;101911.09;4939894;29;20039;-46
2022/04/02 00:03:52;;;;;;;1.60;0.90;;;;;;;25.13;25.60;101908.38;4940018;29;20055;-45
2022/04/02 00:06:20;;;;;;;1.40;0.75;;;;;;;25.13;25.54;101910.13;4939510;29;20035;-45
2022/04/02 00:08:49;;;;;;;1.48;0.90;;;;;;;25.15;25.29;101901.41;4939178;29;20039;-48
2022/04/02 00:11:18;;;;;;;1.98;0.95;;;;;;;25.09;25.74;101900.38;4939424;29;20027;-45
2022/04/02 00:13:47;;;;;;;1.48;0.60;;;;;;;25.07;25.72;101902.09;4939659;29;20024;-52
2022/04/02 00:16:15;;;;;;;1.48;0.70;;;;;;;25.10;25.78;101907.41;4939667;29;20032;-45
2022/04/02 00:18:44;;;;;;;1.30;0.80;;;;;;;25.10;25.46;101902.16;4939555;29;20027;-46
2022/04/02 00:21:13;;;;;;;1.40;0.80;;;;;;;25.09;25.76;101905.66;4939629;29;20032;-46
2022/04/02 00:23:43;;;;;;;1.73;1.05;;;;;;;25.09;25.59;101906.50;4939630;29;20469;-46
2022/04/02 00:26:15;;;;;;;1.13;0.75;;;;;;;25.08;25.61;101901.25;4939032;29;20038;-45
2022/04/02 00:28:44;;;;;;;1.98;0.90;;;;;;;25.06;25.28;101905.56;4938876;29;20413;-45
2022/04/02 00:31:15;;;;;;;1.55;0.80;;;;;;;25.06;25.29;101902.94;4940080;29;20031;-51
2022/04/02 00:33:45;;;;;;;1.52;0.63;;;;;;;25.02;25.73;101902.88;4939122;29;20028;-45
2022/04/02 00:36:15;;;;;;;4.68;0.70;;;;;;;25.07;25.66;101907.34;4939067;29;20111;-45
2022/04/02 00:38:43;;;;;;;1.58;0.77;;;;;;;25.07;25.27;101905.59;4938961;29;20496;-45
2022/04/02 00:41:13;;;;;;;2.72;0.75;;;;;;;25.09;25.41;101908.28;4922073;29;20031;-45
2022/04/02 00:43:54;;;;;;;1.83;0.60;;;;;;;25.04;25.62;101905.53;4921984;29;20397;-46
2022/04/02 00:46:23;;;;;;;1.85;0.80;;;;;;;25.03;25.38;101907.25;4938877;29;20466;-48
2022/04/02 00:48:51;;;;;;;1.02;0.55;;;;;;;25.05;25.58;101911.66;4938747;29;20359;-46
2022/04/02 00:51:20;;;;;;;1.40;0.73;;;;;;;24.99;25.73;101905.41;4938438;29;20023;-50
2022/04/02 00:53:51;;;;;;;1.80;0.70;;;;;;;25.08;25.21;101914.38;4938855;29;20028;-46
2022/04/02 00:56:20;;;;;;;4.35;0.80;;;;;;;25.08;25.36;101912.63;4938207;29;20051;-45
2022/04/02 00:58:48;;;;;;;0.90;0.60;;;;;;;25.02;25.47;101913.38;4938484;29;20426;-49
2022/04/02 01:01:17;;;;;;;1.60;0.70;;;;;;;25.00;25.45;101901.94;4938770;29;20498;-49
2022/04/02 01:03:46;;;;;;;1.67;0.60;;;;;;;25.00;25.35;101904.56;4938581;29;20032;-49
2022/04/02 01:06:15;;;;;;;1.92;0.90;;;;;;;25.02;25.64;101905.50;4938387;29;20481;-47
2022/04/02 01:08:43;;;;;;;1.23;0.52;;;;;;;25.06;25.28;101906.47;4921429;29;20488;-46
2022/04/02 01:11:12;;;;;;;1.52;0.57;;;;;;;25.00;25.78;101903.69;4938742;29;20028;-44
2022/04/02 01:13:41;;;;;;;2.15;0.60;;;;;;;25.00;25.28;101895.81;4938403;29;20036;-45
2022/04/02 01:16:09;;;;;;;1.42;0.70;;;;;;;25.00;25.29;101891.44;4938144;29;20042;-48
2022/04/02 01:18:38;;;;;;;0.82;0.57;;;;;;;25.03;25.54;101891.50;4938329;29;20103;-45
2022/04/02 01:21:06;;;;;;;2.28;0.50;;;;;;;25.02;25.28;101887.09;4938447;29;20068;-45
2022/04/02 01:23:35;;;;;;;1.52;0.60;;;;;;;24.96;25.61;101893.97;4938088;29;20024;-44
2022/04/02 01:26:04;;;;;;;1.45;0.63;;;;;;;24.94;25.79;101888.69;4938152;29;20084;-46
2022/04/02 01:28:33;;;;;;;1.38;0.50;;;;;;;24.93;25.52;101886.91;4937902;29;20049;-43
2022/04/02 01:31:07;;;;;;;1.50;0.50;;;;;;;24.96;25.61;101889.63;4938000;29;20130;-45
2022/04/02 01:33:36;;;;;;;0.68;0.40;;;;;;;25.00;25.55;101891.44;4920775;29;20039;-47
2022/04/02 01:36:06;;;;;;;1.63;0.50;;;;;;;24.95;25.81;101897.44;4921352;29;20135;-50
2022/04/02 01:38:35;;;;;;;2.63;0.70;;;;;;;24.93;25.52;101893.88;4937974;29;20529;-44
2022/04/02 01:41:04;;;;;;;2.78;0.60;;;;;;;24.97;25.35;101895.72;4938193;29;20115;-44
2022/04/02 01:43:32;;;;;;;1.83;0.70;;;;;;;24.95;25.55;101898.34;4921288;29;20024;-44
2022/04/02 01:46:01;;;;;;;1.23;0.70;;;;;;;24.95;25.76;101906.22;4920781;29;20031;-47
2022/04/02 01:48:30;;;;;;;1.52;0.52;;;;;;;24.93;25.62;101902.66;4937525;29;20038;-44
2022/04/02 01:50:58;;;;;;;1.60;0.50;;;;;;;24.94;25.65;101895.66;4938065;29;20040;-44
2022/04/02 01:53:27;;;;;;;1.20;0.55;;;;;;;24.88;25.43;101891.16;4920343;29;20381;-45
2022/04/02 01:55:56;;;;;;;1.65;0.63;;;;;;;24.94;25.83;101893.94;4937379;29;20036;-45
2022/04/02 01:58:23;;;;;;;1.35;0.40;;;;;;;24.93;25.77;101899.13;4936930;29;20059;-45
2022/04/02 02:00:52;;;;;;;0.95;0.57;;;;;;;24.94;25.61;101901.81;4937411;29;20134;-51
2022/04/02 02:03:20;;;;;;;0.70;0.52;;;;;;;24.88;25.42;101906.91;4937505;29;20392;-44
2022/04/02 02:05:47;;;;;;;1.65;0.65;;;;;;;24.91;25.56;101909.59;4937364;29;20514;-45
2022/04/02 02:08:16;;;;;;;2.03;0.55;;;;;;;24.87;25.48;101906.03;4937393;29;20046;-48
2022/04/02 02:10:47;;;;;;;2.65;0.77;;;;;;;24.88;25.61;101899.03;4937215;29;20031;-44
2022/04/02 02:13:16;;;;;;;0.52;0.30;;;;;;;24.85;25.67;101896.31;4936961;29;20042;-45
2022/04/02 02:15:45;;;;;;;2.60;0.80;;;;;;;24.86;25.42;101903.34;4936820;29;20034;-46
2022/04/02 02:18:13;;;;;;;1.65;0.57;;;;;;;24.92;25.50;101903.50;4937453;29;20024;-53
2022/04/02 02:20:43;;;;;;;2.00;0.68;;;;;;;24.88;25.61;101904.28;4937565;29;20028;-44
2022/04/02 02:23:12;;;;;;;1.67;0.52;;;;;;;24.81;25.32;101900.63;4920077;29;20031;-44
2022/04/02 02:25:41;;;;;;;0.75;0.50;;;;;;;24.82;25.37;101912.03;4937106;29;20051;-45
2022/04/02 02:28:09;;;;;;;0.88;0.40;;;;;;;24.83;25.60;101909.41;4936981;29;20099;-44
2022/04/02 02:30:38;;;;;;;0.43;0.32;;;;;;;24.85;25.51;101906.81;4937891;29;20035;-51
2022/04/02 02:35:55;;;;;;;1.90;0.40;;;;;;;24.88;25.66;101901.66;4930436;29;20381;-44
2022/04/02 02:38:23;;;;;;;1.95;0.50;;;;;;;24.85;25.78;101896.31;4936767;29;20401;-45
2022/04/02 02:40:53;;;;;;;1.02;0.47;;;;;;;24.86;25.63;101890.22;4937549;29;20031;-45
2022/04/02 02:43:21;;;;;;;0.93;0.40;;;;;;;24.86;25.74;101904.25;4936738;29;20047;-45
2022/04/02 02:45:50;;;;;;;0.57;0.40;;;;;;;24.85;25.74;101905.09;4936802;29;20038;-45
2022/04/02 02:48:19;;;;;;;1.40;0.40;;;;;;;24.80;25.90;101897.97;4936720;29;20031;-47
2022/04/02 02:50:48;;;;;;;1.48;0.45;;;;;;;24.83;25.70;101908.53;4936652;29;20027;-43
2022/04/02 02:53:17;;;;;;;1.33;0.40;;;;;;;24.82;25.52;101912.91;4936574;29;20115;-47
2022/04/02 02:55:46;;;;;;;0.65;0.38;;;;;;;24.83;25.49;101913.75;4936751;29;20119;-44
2022/04/02 02:58:14;;;;;;;2.15;0.57;;;;;;;24.85;25.43;101918.22;4936876;29;20107;-44
2022/04/02 03:00:43;;;;;;;0.43;0.30;;;;;;;24.78;25.82;101918.03;4936523;29;20076;-45
2022/04/02 03:03:12;;;;;;;0.57;0.30;;;;;;;24.77;25.66;101919.75;4936325;29;20027;-44
2022/04/02 03:05:40;;;;;;;1.10;0.45;;;;;;;24.82;25.90;101923.41;4936532;29;20063;-44
2022/04/02 03:08:09;;;;;;;1.17;0.38;;;;;;;24.80;25.84;101929.47;4936449;29;20030;-45
2022/04/02 03:10:37;;;;;;;1.65;0.68;;;;;;;24.77;25.44;101927.63;4936221;29;20386;-45
2022/04/02 03:13:06;;;;;;;1.00;0.30;;;;;;;24.79;25.66;101932.94;4936927;29;20457;-44
2022/04/02 03:15:35;;;;;;;1.40;0.45;;;;;;;24.77;25.71;101937.25;4936518;29;20023;-44
2022/04/02 03:18:05;;;;;;;0.63;0.40;;;;;;;24.75;25.64;101925.81;4936382;29;20031;-44
2022/04/02 03:20:34;;;;;;;0.50;0.35;;;;;;;24.75;25.72;101915.34;4935765;29;20027;-46
2022/04/02 03:23:04;;;;;;;1.48;0.40;;;;;;;24.75;26.12;101920.59;4935710;29;20426;-44
2022/04/02 03:25:33;;;;;;;1.40;0.43;;;;;;;24.75;25.58;101916.19;4936188;29;20028;-44
2022/04/02 03:28:03;;;;;;;1.13;0.40;;;;;;;24.76;25.75;101906.63;4935953;29;20054;-46
2022/04/02 03:30:33;;;;;;;1.08;0.25;;;;;;;24.69;25.66;101895.91;4935970;29;20058;-45
2022/04/02 03:33:01;;;;;;;0.73;0.35;;;;;;;24.76;25.85;101909.22;4936087;29;20056;-45
2022/04/02 03:35:30;;;;;;;0.50;0.30;;;;;;;24.74;26.07;101906.56;4936008;29;20031;-45
2022/04/02 03:37:58;;;;;;;0.70;0.30;;;;;;;24.78;25.58;101910.16;4936142;29;20027;-45
2022/04/02 03:40:27;;;;;;;1.30;0.52;;;;;;;24.75;26.09;101910.09;4936227;29;20032;-46
2022/04/02 03:42:57;;;;;;;0.73;0.38;;;;;;;24.78;25.63;101905.78;4919144;29;20059;-48
2022/04/02 03:45:25;;;;;;;0.95;0.32;;;;;;;24.78;25.70;101903.16;4935695;29;20473;-46
2022/04/02 03:47:54;;;;;;;2.00;0.40;;;;;;;24.76;25.82;101902.25;4935135;29;20500;-46
2022/04/02 03:50:22;;;;;;;1.52;0.50;;;;;;;24.79;25.79;101898.81;4935777;29;20071;-47
2022/04/02 03:52:51;;;;;;;0.80;0.28;;;;;;;24.77;25.53;101911.00;4936160;29;20035;-46
2022/04/02 03:55:20;;;;;;;1.10;0.35;;;;;;;24.77;25.92;101908.38;4935910;29;20031;-45
2022/04/02 03:57:49;;;;;;;0.55;0.28;;;;;;;24.76;25.72;101911.84;4936074;29;20023;-45
2022/04/02 04:00:19;;;;;;;0.70;0.32;;;;;;;24.76;25.85;101897.00;4935921;29;20434;-48
2022/04/02 04:02:48;;;;;;;0.90;0.47;;;;;;;24.75;26.01;101904.84;4936482;29;20059;-45
2022/04/02 04:05:18;;;;;;;1.00;0.50;;;;;;;24.75;25.53;101896.97;4919140;29;20035;-45
2022/04/02 04:07:47;;;;;;;0.47;0.30;;;;;;;24.71;25.80;101901.25;4935717;29;20023;-46
2022/04/02 04:10:16;;;;;;;1.05;0.47;;;;;;;24.73;26.06;101903.06;4935788;29;20382;-44
2022/04/02 04:12:44;;;;;;;0.52;0.30;;;;;;;24.75;26.00;101905.72;4936312;29;20076;-48
2022/04/02 04:15:13;;;;;;;0.35;0.30;;;;;;;24.73;25.81;101897.81;4936188;29;20027;-45
2022/04/02 04:17:42;;;;;;;0.30;0.20;;;;;;;24.73;26.03;101897.81;4935638;29;20038;-44
2022/04/02 04:20:11;;;;;;;0.70;0.30;;;;;;;24.76;26.05;101901.38;4919404;29;20031;-48
2022/04/02 04:22:40;;;;;;;2.33;0.47;;;;;;;24.73;25.75;101900.44;4935924;29;20027;-45
2022/04/02 04:25:10;;;;;;;0.55;0.30;;;;;;;24.73;25.86;101902.19;4935500;29;20409;-46
2022/04/02 04:27:39;;;;;;;0.65;0.32;;;;;;;24.66;25.81;101887.97;4935416;29;20078;-47
2022/04/02 04:30:08;;;;;;;0.45;0.30;;;;;;;24.77;25.99;101897.88;4935603;29;20036;-46
2022/04/02 04:32:37;;;;;;;0.60;0.30;;;;;;;24.78;25.61;101894.41;4918657;29;20413;-51
2022/04/02 04:35:05;;;;;;;0.45;0.20;;;;;;;24.79;25.90;101901.44;4936287;29;20027;-45
2022/04/02 04:37:36;;;;;;;0.82;0.47;;;;;;;24.84;25.90;101898.06;4939128;29;20035;-46
2022/04/02 04:40:05;;;;;;;0.68;0.30;;;;;;;24.78;25.69;101889.16;4939356;29;20028;-46
2022/04/02 04:42:34;;;;;;;0.55;0.35;;;;;;;24.85;25.59;101891.06;4938955;29;20027;-50
2022/04/02 04:45:02;;;;;;;1.00;0.32;;;;;;;24.83;25.79;101890.16;4938773;29;20028;-48
2022/04/02 04:47:31;;;;;;;1.42;0.30;;;;;;;24.81;25.74;101887.50;4938793;29;20028;-45
2022/04/02 04:50:00;;;;;;;1.95;0.40;;;;;;;24.82;25.74;101884.03;4938788;29;20042;-45
2022/04/02 04:52:28;;;;;;;0.35;0.17;;;;;;;24.85;25.75;101884.09;4938533;29;20027;-44
2022/04/02 04:54:57;;;;;;;4.47;0.52;;;;;;;24.83;25.83;101879.66;4938552;29;20036;-45
2022/04/02 04:57:26;;;;;;;1.35;0.50;;;;;;;24.86;25.83;101882.34;4939039;29;20027;-46
2022/04/02 04:59:54;;;;;;;1.63;0.40;;;;;;;24.87;25.85;101878.88;4938809;29;20031;-46
2022/04/02 05:02:23;;;;;;;1.50;0.30;;;;;;;24.88;25.67;101885.91;4938890;29;20032;-47
2022/04/02 05:04:52;;;;;;;1.80;0.57;;;;;;;24.88;26.02;101880.66;4938518;29;20064;-44
2022/04/02 05:07:20;;;;;;;3.33;0.90;;;;;;;24.92;25.54;101893.00;4938565;29;20035;-44
2022/04/02 05:09:49;;;;;;;3.40;0.40;;;;;;;24.89;25.76;101890.31;4938367;29;20067;-45
2022/04/02 05:12:18;;;;;;;3.15;0.35;;;;;;;24.88;25.78;101897.31;4938706;29;20373;-47
2022/04/02 05:14:46;;;;;;;0.85;0.40;;;;;;;24.95;25.66;101894.81;4938702;29;20103;-45
2022/04/02 05:17:15;;;;;;;3.28;0.50;;;;;;;24.97;26.08;101887.84;4938601;29;20095;-47
2022/04/02 05:19:43;;;;;;;1.40;0.32;;;;;;;24.98;25.79;101890.53;4938542;29;20083;-45
2022/04/02 05:22:12;;;;;;;2.67;0.43;;;;;;;25.03;25.79;101903.78;4938051;29;20023;-45
2022/04/02 05:24:40;;;;;;;1.70;0.50;;;;;;;25.04;25.47;101897.66;4938427;29;20046;-47
2022/04/02 05:27:09;;;;;;;7.55;1.10;;;;;;;25.06;25.59;101900.31;4938161;29;20110;-45
2022/04/02 05:29:38;;;;;;;6.07;0.88;;;;;;;25.09;25.72;101898.63;4937974;29;20082;-49
2022/04/02 05:32:06;;;;;;;2.10;0.60;;;;;;;25.12;25.92;101903.97;4921687;29;20032;-47
2022/04/02 05:34:35;;;;;;;1.25;0.40;;;;;;;25.10;25.47;101904.78;4938141;29;20413;-47
2022/04/02 05:37:03;;;;;;;1.48;0.47;;;;;;;25.13;25.32;101903.13;4938303;29;20031;-45
2022/04/02 05:39:31;;;;;;;1.25;0.73;;;;;;;25.11;25.63;101902.19;4938287;29;20035;-52
2022/04/02 05:42:00;;;;;;;1.25;0.47;;;;;;;25.16;25.50;101908.44;4921062;29;20032;-45
2022/04/02 05:44:29;;;;;;;1.92;0.38;;;;;;;25.15;25.61;101908.41;4937862;29;20103;-45
2022/04/02 05:46:58;;;;;;;3.30;0.50;;;;;;;25.11;26.04;101906.56;4936849;29;20032;-50
2022/04/02 05:49:26;;;;;;;2.42;0.68;;;;;;;25.10;25.53;101907.41;4937924;29;20043;-45
2022/04/02 05:51:55;;;;;;;1.88;0.40;;;;;;;25.09;25.90;101908.28;4921045;29;20027;-50
2022/04/02 05:54:23;;;;;;;2.38;0.60;;;;;;;25.10;25.89;101905.66;4937618;29;20039;-45
2022/04/02 05:56:52;;;;;;;1.88;0.68;;;;;;;25.10;25.96;101913.53;4937654;29;20028;-44
2022/04/02 05:59:21;;;;;;;3.67;0.40;;;;;;;25.09;25.50;101913.53;4937703;29;20449;-47
2022/04/02 06:01:50;;;;;;;3.78;0.60;;;;;;;25.07;25.68;101912.59;4937392;29;20036;-49
2022/04/02 06:04:18;;;;;;;1.65;0.57;;;;;;;25.09;25.61;101910.91;4937346;29;20031;-43
2022/04/02 06:06:47;;;;;;;3.28;0.30;;;;;;;25.06;25.63;101916.06;4937247;29;20495;-45
2022/04/02 06:09:16;;;;;;;1.33;0.40;;;;;;;25.10;25.58;101920.53;4937397;29;20043;-45
2022/04/02 06:11:45;;;;;;;2.38;0.32;;;;;;;25.16;25.46;101916.31;4920815;29;20390;-50
2022/04/02 06:14:14;;;;;;;3.85;0.60;;;;;;;25.09;25.35;101919.63;4937430;29;20396;-52
2022/04/02 06:16:43;;;;;;;1.05;0.20;;;;;;;25.04;25.54;101926.53;4936860;29;20623;-49
2022/04/02 06:19:12;;;;;;;1.90;0.40;;;;;;;25.13;25.41;101926.75;4937677;29;20028;-51
2022/04/02 06:21:40;;;;;;;1.33;0.45;;;;;;;25.09;25.63;101924.03;4919954;29;20035;-47
2022/04/02 06:24:09;;;;;;;7.68;0.95;;;;;;;25.10;25.73;101921.41;4937259;29;20481;-50
2022/04/02 06:26:38;;;;;;;3.15;0.60;;;;;;;25.10;25.27;101926.66;4936736;29;20115;-51
2022/04/02 06:29:06;;;;;;;4.40;0.60;;;;;;;25.11;25.52;101928.44;4936906;29;20063;-44
2022/04/02 06:31:35;;;;;;;5.97;0.90;;;;;;;25.12;25.47;101934.59;4937652;29;20134;-44
2022/04/02 06:34:03;;;;;;;5.90;0.65;;;;;;;25.11;25.31;101931.06;4920316;29;20024;-47
2022/04/02 06:36:32;;;;;;;7.07;0.77;;;;;;;25.10;25.52;101931.06;4920009;29;20394;-43
2022/04/02 06:39:00;;;;;;;2.63;0.70;;;;;;;25.12;25.26;101934.59;4936771;29;20028;-45
2022/04/02 06:41:29;;;;;;;3.38;0.55;;;;;;;25.13;25.40;101934.63;4937183;29;20020;-48
2022/04/02 06:43:58;;;;;;;5.07;1.30;;;;;;;25.15;25.23;101953.94;4936555;29;20385;-44
2022/04/02 06:46:26;;;;;;;3.05;0.82;;;;;;;25.12;25.55;101951.22;4936755;29;20035;-46
2022/04/02 06:48:55;;;;;;;6.55;0.55;;;;;;;25.15;25.51;101950.44;4936589;29;20040;-45
2022/04/02 06:51:23;;;;;;;1.85;0.50;;;;;;;25.15;25.38;101953.06;4937005;29;20431;-46
2022/04/02 06:53:52;;;;;;;4.38;0.47;;;;;;;25.23;25.35;101955.88;4936197;29;20106;-47
2022/04/02 06:56:21;;;;;;;6.03;0.50;;;;;;;25.19;25.66;101962.75;4936753;29;20474;-45
2022/04/02 06:58:49;;;;;;;4.53;0.80;;;;;;;25.21;25.42;101957.56;4936564;29;20385;-48
2022/04/02 07:01:18;;;;;;;2.38;0.50;;;;;;;25.24;25.39;101969.03;4919034;29;20023;-53
2022/04/02 07:03:47;;;;;;;2.20;0.60;;;;;;;25.21;25.33;101965.44;4936000;29;20043;-45
2022/04/02 07:06:15;;;;;;;0.55;0.30;;;;;;;25.25;25.18;101967.25;4936691;29;20024;-50
2022/04/02 07:08:44;;;;;;;5.95;0.40;;;;;;;25.24;25.69;101970.75;4936148;29;20067;-47
2022/04/02 07:11:12;;;;;;;4.88;0.55;;;;;;;25.24;25.54;101976.00;4935934;29;20044;-48
2022/04/02 07:13:41;;;;;;;5.32;0.50;;;;;;;25.26;25.29;101980.44;4936227;29;20028;-45
2022/04/02 07:16:09;;;;;;;1.70;0.30;;;;;;;25.20;25.65;101982.03;4936405;29;20062;-48
2022/04/02 07:18:47;;;;;;;3.22;0.57;;;;;;;25.25;25.39;101985.66;4935873;29;20027;-52
2022/04/02 07:21:18;;;;;;;1.83;0.30;;;;;;;25.24;25.48;101979.53;4920040;29;20507;-45
2022/04/02 07:23:47;;;;;;;2.30;0.60;;;;;;;25.26;25.39;101983.06;4919247;29;20034;-47
2022/04/02 07:26:17;;;;;;;4.78;0.60;;;;;;;25.22;25.59;101980.34;4936401;29;20035;-48
2022/04/02 07:28:46;;;;;;;1.33;0.50;;;;;;;25.24;25.39;101979.53;4919065;29;20454;-52
2022/04/02 07:31:15;;;;;;;0.95;0.45;;;;;;;25.17;25.67;101982.84;4936113;29;20043;-47
2022/04/02 07:33:43;;;;;;;4.80;0.85;;;;;;;25.24;25.23;101983.88;4936178;29;20541;-47
2022/04/02 07:36:41;;;;;;;12.32;0.70;;;;;;;25.24;25.67;101984.78;4935790;29;20043;-44
2022/04/02 07:39:16;;;;;;;0.65;0.30;;;;;;;25.24;25.49;101976.91;4919151;29;20036;-46
2022/04/02 07:41:53;;;;;;;2.83;0.57;;;;;;;25.29;25.17;101988.41;4935771;29;20032;-47
2022/04/02 07:44:25;;;;;;;2.38;0.68;;;;;;;25.27;25.31;101989.19;4935784;29;20509;-45
2022/04/02 07:46:54;;;;;;;3.28;0.80;;;;;;;25.26;25.22;101988.31;4935115;29;20059;-45
2022/04/02 07:49:22;;;;;;;0.82;0.40;;;;;;;25.28;25.25;101990.97;4919351;29;20032;-50
2022/04/02 07:51:54;;;;;;;2.50;0.55;;;;;;;25.33;25.53;102000.72;4919619;29;20070;-44
2022/04/02 07:54:25;;;;;;;2.03;0.57;;;;;;;25.29;25.51;101988.41;4935972;29;20481;-45
2022/04/02 07:56:58;;;;;;;2.33;0.60;;;;;;;25.27;25.64;102005.88;4936013;29;20044;-44
2022/04/02 07:59:28;;;;;;;1.10;0.55;;;;;;;25.23;25.25;101995.25;4919448;29;20028;-45
2022/04/02 08:01:57;;;;;;;2.45;0.50;;;;;;;25.23;25.58;102000.50;4935891;29;20466;-45
2022/04/02 08:04:26;;;;;;;2.22;0.60;;;;;;;25.25;25.21;101999.69;4919199;29;20040;-46
2022/04/02 08:06:55;;;;;;;2.42;0.40;;;;;;;25.34;25.46;101999.00;4935395;29;20103;-47
2022/04/02 08:09:24;;;;;;;4.72;1.15;;;;;;;25.30;25.27;102002.41;4935591;29;20031;-44
2022/04/02 08:11:53;;;;;;;1.45;0.70;;;;;;;25.31;25.27;102001.56;4922945;29;20051;-46
2022/04/02 08:14:22;;;;;;;3.80;0.52;;;;;;;25.30;25.25;102000.69;4939711;29;20028;-48
2022/04/02 08:16:49;;;;;;;2.75;0.70;;;;;;;25.26;25.52;101998.84;4939446;29;20393;-47
2022/04/02 08:19:22;;;;;;;2.50;0.95;;;;;;;25.26;25.38;101998.84;4939818;29;20433;-47
2022/04/02 08:21:51;;;;;;;1.98;0.50;;;;;;;25.28;25.43;102001.47;4939401;29;20032;-43
2022/04/02 08:24:19;;;;;;;1.40;0.30;;;;;;;25.26;25.42;102003.19;4939476;29;20035;-43
2022/04/02 08:27:04;;;;;;;2.13;0.65;;;;;;;25.23;25.78;102003.13;4939219;29;20465;-46
2022/04/02 08:29:41;;;;;;;2.47;0.63;;;;;;;25.28;25.67;102001.47;4938963;29;20059;-44
2022/04/02 08:32:29;;;;;;;1.52;0.45;;;;;;;25.30;25.68;102000.69;4939254;29;20090;-44
2022/04/02 08:35:06;;;;;;;4.88;0.50;;;;;;;25.26;25.73;102003.19;4936718;29;20421;-44
2022/04/02 08:37:43;;;;;;;1.45;0.47;;;;;;;25.25;25.58;101997.06;4939025;29;20039;-44
2022/04/02 08:40:49;;;;;;;2.28;0.85;;;;;;;25.29;25.58;101995.38;4922181;29;20378;-45
2022/04/02 08:43:22;;;;;;;4.75;0.70;;;;;;;25.27;25.72;102004.97;4937985;29;20462;-44
2022/04/02 08:46:19;;;;;;;1.70;0.40;;;;;;;25.27;25.63;102002.34;4938568;29;20111;-48
2022/04/02 08:49:00;;;;;;;1.75;0.60;;;;;;;25.26;25.62;102004.09;4929456;29;20039;-50
2022/04/02 08:51:48;;;;;;;8.30;0.60;;;;;;;25.26;25.70;102008.44;4939069;29;20539;-45
2022/04/02 08:54:27;;;;;;;1.23;0.60;;;;;;;25.28;25.87;102001.47;4938764;29;20087;-44
2022/04/02 08:57:29;;;;;;;1.50;0.60;;;;;;;25.28;25.56;102007.63;4938970;29;20363;-51
2022/04/02 09:00:09;;;;;;;2.53;0.60;;;;;;;25.27;25.98;102003.25;4938008;29;20043;-46
2022/04/02 09:03:15;;;;;;;2.35;0.45;;;;;;;25.29;25.80;102001.53;4938619;29;20035;-52
2022/04/02 09:06:14;;;;;;;2.17;0.60;;;;;;;25.29;25.90;101998.91;4928819;29;20086;-46
2022/04/02 09:09:02;;;;;;;3.22;0.63;;;;;;;25.24;25.74;102002.25;4929385;29;20127;-47
2022/04/02 09:11:46;;;;;;;2.63;0.70;;;;;;;25.27;26.00;102007.59;4938763;29;20031;-47
2022/04/02 09:14:30;;;;;;;1.20;0.47;;;;;;;25.24;26.05;101995.28;4922061;29;20474;-49
2022/04/02 09:17:02;;;;;;;4.30;0.80;;;;;;;25.22;26.04;101998.72;4938090;29;20141;-49
2022/04/02 09:19:51;;;;;;;1.70;0.50;;;;;;;25.22;26.06;101999.59;4938459;29;20028;-45
2022/04/02 09:22:33;;;;;;;3.78;0.52;;;;;;;25.26;25.84;102001.47;4932056;29;20050;-45
2022/04/02 09:25:39;;;;;;;2.53;0.73;;;;;;;25.30;26.25;102000.69;4938310;29;20039;-50
2022/04/02 09:28:10;;;;;;;4.72;0.50;;;;;;;25.29;26.19;102001.53;4928984;29;20066;-45
2022/04/02 09:30:57;;;;;;;1.02;0.63;;;;;;;25.38;26.03;102002.59;4938211;29;20442;-51
2022/04/02 09:33:48;;;;;;;1.33;0.50;;;;;;;25.32;25.83;102004.22;4934528;29;20043;-47
2022/04/02 09:36:31;;;;;;;0.90;0.40;;;;;;;25.34;26.09;101999.88;4934961;29;20504;-46
2022/04/02 09:39:05;;;;;;;3.58;0.80;;;;;;;25.38;26.11;101997.34;4937995;29;20051;-46
2022/04/02 09:41:52;;;;;;;0.95;0.40;;;;;;;25.40;26.12;101998.25;4938198;29;20032;-48
2022/04/02 09:44:39;;;;;;;2.03;0.55;;;;;;;25.39;25.91;101996.50;4937445;29;20126;-47
2022/04/02 09:47:21;;;;;;;0.95;0.52;;;;;;;25.37;25.81;101999.09;4934456;29;20071;-45
2022/04/02 09:50:10;;;;;;;0.90;0.20;;;;;;;25.45;26.21;102000.19;4937530;29;20028;-45
2022/04/02 09:52:43;;;;;;;2.15;0.80;;;;;;;25.40;25.96;101995.63;4918329;29;20079;-44
2022/04/02 09:55:15;;;;;;;1.95;0.52;;;;;;;25.39;25.98;102007.00;4921077;29;20404;-44
2022/04/02 09:58:03;;;;;;;1.67;0.60;;;;;;;25.39;26.32;102007.91;4938095;29;20039;-44
2022/04/02 10:00:46;;;;;;;4.28;0.73;;;;;;;25.43;26.07;101999.25;4933774;29;20039;-44
2022/04/02 10:03:53;;;;;;;2.63;0.45;;;;;;;25.46;25.90;101996.69;4921138;29;20028;-45
2022/04/02 10:06:25;;;;;;;1.52;0.65;;;;;;;25.47;26.20;102006.34;4936811;29;20032;-51
2022/04/02 10:09:12;;;;;;;1.85;0.50;;;;;;;25.48;25.90;102002.88;4937507;29;20524;-48
2022/04/02 10:11:49;;;;;;;2.33;0.50;;;;;;;25.47;26.20;102005.47;4937285;29;20118;-45
2022/04/02 10:14:22;;;;;;;0.85;0.60;;;;;;;25.47;25.74;102006.34;4920753;29;20080;-46
2022/04/02 10:16:55;;;;;;;1.33;0.63;;;;;;;25.46;26.37;102006.34;4937373;29;20031;-45
2022/04/02 10:19:29;;;;;;;1.73;0.35;;;;;;;25.52;25.89;102003.81;4937822;29;20032;-46
2022/04/02 10:22:02;;;;;;;2.50;0.93;;;;;;;25.51;26.30;101996.78;4937703;29;20058;-44
2022/04/02 10:24:37;;;;;;;2.35;0.63;;;;;;;25.54;26.39;101998.63;4936614;29;20396;-47
2022/04/02 10:27:10;;;;;;;1.05;0.65;;;;;;;25.54;26.13;101999.50;4937309;29;20024;-44
2022/04/02 10:30:02;;;;;;;2.92;0.70;;;;;;;25.57;26.39;101994.31;4936365;29;20513;-48
2022/04/02 10:32:50;;;;;;;10.93;2.15;;;;;;;25.62;25.87;101997.94;4934043;29;20047;-43
2022/04/02 10:35:20;;;;;;;2.80;0.90;;;;;;;25.66;26.10;101998.91;4936446;29;20028;-46
2022/04/02 10:37:53;;;;;;;7.03;0.63;;;;;;;25.71;25.79;101999.00;4936746;29;20366;-44
2022/04/02 10:40:24;;;;;;;2.28;0.70;;;;;;;25.75;25.84;101992.94;4936413;29;20054;-46
2022/04/02 10:42:55;;;;;;;3.40;0.57;;;;;;;25.72;25.90;101990.25;4937061;29;20031;-45
2022/04/02 10:45:25;;;;;;;1.55;0.60;;;;;;;25.74;26.13;101997.31;4936896;29;20087;-44
2022/04/02 10:48:14;;;;;;;1.42;0.50;;;;;;;25.72;25.89;101987.63;4919727;29;20039;-43
2022/04/02 10:50:45;;;;;;;1.08;0.57;;;;;;;25.74;26.09;101986.78;4936406;29;20425;-44
2022/04/02 10:53:17;;;;;;;1.35;0.57;;;;;;;25.76;26.05;101986.84;4936976;29;20032;-44
2022/04/02 10:55:48;;;;;;;1.52;0.80;;;;;;;25.74;26.15;101985.91;4936933;29;20039;-47
2022/04/02 10:58:22;;;;;;;2.03;0.60;;;;;;;25.77;26.19;101986.88;4936713;29;20030;-47
2022/04/02 11:00:50;;;;;;;2.15;0.50;;;;;;;25.76;25.94;101990.34;4937105;29;20103;-44
2022/04/02 11:03:39;;;;;;;3.10;0.60;;;;;;;25.77;26.03;101980.75;4936832;29;20481;-46
2022/04/02 11:06:09;;;;;;;1.52;0.75;;;;;;;25.77;25.80;101981.59;4936710;29;20396;-45
2022/04/02 11:08:38;;;;;;;2.00;0.77;;;;;;;25.79;25.78;101981.66;4936055;29;20031;-44
2022/04/02 11:11:19;;;;;;;2.13;0.75;;;;;;;25.77;26.19;101986.00;4936266;29;20151;-44
2022/04/02 11:13:47;;;;;;;2.65;0.80;;;;;;;25.81;25.64;101979.06;4936769;29;20046;-51
2022/04/02 11:16:16;;;;;;;2.22;0.70;;;;;;;25.77;25.92;101983.38;4919619;29;20427;-45
2022/04/02 11:19:53;;;;;;;2.20;0.60;;;;;;;25.81;25.57;101977.31;4919063;29;20028;-45
2022/04/02 11:21:43;;;;;;;0.77;0.50;;;;;;;25.81;25.76;101986.94;4936273;29;20114;-45
2022/04/02 11:24:13;;;;;;;1.00;0.70;;;;;;;25.80;25.66;101983.44;4919158;29;20406;-49
2022/04/02 11:26:42;;;;;;;4.07;0.40;;;;;;;25.83;25.64;101982.59;4935807;29;20039;-51
2022/04/02 11:29:14;;;;;;;1.27;0.63;;;;;;;25.82;26.10;101988.72;4915607;29;20112;-49
2022/04/02 11:31:47;;;;;;;1.10;0.70;;;;;;;25.78;26.01;101983.38;4917278;29;20466;-50
2022/04/02 11:34:20;;;;;;;1.30;0.30;;;;;;;25.79;25.78;101993.03;4917264;29;20040;-51
2022/04/02 11:36:49;;;;;;;1.65;0.57;;;;;;;25.86;26.13;102001.06;4917503;29;20063;-52
2022/04/02 11:39:32;;;;;;;2.15;0.60;;;;;;;25.82;26.21;101989.59;4900631;29;20032;-47
2022/04/02 11:42:03;;;;;;;0.98;0.52;;;;;;;25.86;26.09;101991.44;4917738;29;20146;-47
2022/04/02 11:44:38;;;;;;;0.98;0.60;;;;;;;25.85;26.20;101987.03;4899620;29;20032;-48
2022/04/02 11:47:08;;;;;;;0.50;0.30;;;;;;;25.82;26.05;101994.84;4916978;29;20449;-51
2022/04/02 11:49:39;;;;;;;2.22;0.30;;;;;;;25.83;26.10;101987.88;4916525;29;20046;-50